Latest Weather Observations for Campania

IDT60901

Issued at 12:01 pm EDT Saturday 10 December 2016 (issued every 10 minutes, with the page automatically refreshed every 10 minutes)

About weather observations | Map of Hobart area stations | Latest observations for Hobart area | Other Formats
Station Details ID: 094212 Name: CAMPANIA (KINCORA) Lat: -42.69 Lon: 147.43 Height: 45.0 m
Data from the previous 72 hours. | See also: Recent months at Campania
Date/Time
EDT
Temp
°C
App
Temp
°C
Dew
Point
°C
Rel
Hum
%
Delta-T
°C
Wind Press
QNH
hPa
Press
MSL
hPa
Rain since
9am
mm
Dir  Spd
km/h
Gust
km/h
Spd
kts
Gust
kts
10/12:00pm 17.1 12.7 7.5 53 4.8 WNW 20 32 11 17 - - 0.0
10/11:30am 17.8 13.4 7.5 51 5.2 W 20 35 11 19 - - 0.0
10/11:00am 18.3 13.7 8.0 51 5.3 W 22 35 12 19 - - 0.0
10/10:30am 15.9 12.2 7.9 59 4.0 WNW 17 24 9 13 - - 0.0
10/10:00am 15.7 11.7 8.2 61 3.8 NW 19 30 10 16 - - 0.0
10/09:30am 16.2 12.1 7.9 58 4.2 NW 19 28 10 15 - - 0.0
10/09:00am 14.9 10.6 7.2 60 3.8 WNW 19 32 10 17 - - 0.2
10/08:30am 15.7 11.9 7.5 58 4.1 NW 17 32 9 17 - - 0.2
10/08:00am 14.1 10.6 7.2 63 3.4 NW 15 22 8 12 - - 0.2
10/07:30am 13.3 9.7 6.9 65 3.1 NNE 15 24 8 13 - - 0.2
10/07:00am 12.9 7.9 6.5 65 3.1 WNW 22 35 12 19 - - 0.2
10/06:30am 12.4 8.3 6.2 66 2.9 WNW 17 33 9 18 - - 0.2
10/06:00am 12.0 7.8 5.9 66 2.9 WNW 17 28 9 15 - - 0.2
10/05:30am 11.4 7.9 5.5 67 2.7 NW 13 20 7 11 - - 0.2
10/05:00am 11.3 7.0 5.2 66 2.8 NNW 17 24 9 13 - - 0.2
10/04:30am 11.4 6.4 4.8 64 3.0 WNW 20 30 11 16 - - 0.2
10/04:00am 11.3 7.3 5.0 65 2.9 WNW 15 26 8 14 - - 0.2
10/03:30am 11.3 6.9 5.0 65 2.9 NW 17 28 9 15 - - 0.2
10/03:00am 11.2 8.0 4.9 65 2.9 NW 11 15 6 8 - - 0.2
10/02:30am 11.3 7.3 4.7 64 3.0 NW 15 20 8 11 - - 0.2
10/02:00am 11.3 7.2 4.5 63 3.1 WNW 15 28 8 15 - - 0.2
10/01:30am 11.2 6.2 4.7 64 2.9 WNW 20 30 11 16 - - 0.2
10/01:00am 11.0 6.2 4.5 64 2.9 WNW 19 32 10 17 - - 0.2
10/12:30am 10.9 7.1 4.1 63 3.0 WNW 13 19 7 10 - - 0.2
10/12:00am 10.8 7.0 4.0 63 3.0 NW 13 22 7 12 - - 0.2
 
Date/Time
EDT
Temp
°C
App
Temp
°C
Dew
Point
°C
Rel
Hum
%
Delta-T
°C
Wind Press
QNH
hPa
Press
MSL
hPa
Rain since
9am
mm
Dir  Spd
km/h
Gust
km/h
Spd
kts
Gust
kts
09/11:30pm 10.5 6.3 3.8 63 3.0 WNW 15 24 8 13 - - 0.2
09/11:00pm 10.5 5.9 3.8 63 3.0 W 17 26 9 14 - - 0.2
09/10:30pm 10.2 5.9 3.3 62 3.0 W 15 20 8 11 - - 0.2
09/10:00pm 10.5 5.8 3.1 60 3.2 W 17 24 9 13 - - 0.2
09/09:30pm 10.3 6.0 3.3 62 3.1 W 15 19 8 10 - - 0.2
09/09:00pm 11.1 4.7 3.2 58 3.5 WSW 26 37 14 20 - - 0.2
09/08:30pm 11.4 5.8 3.2 57 3.6 WSW 22 33 12 18 - - 0.2
09/08:00pm 11.8 5.4 3.1 55 3.8 SW 26 46 14 25 - - 0.2
09/07:30pm 12.6 7.5 3.3 53 4.1 W 19 30 10 16 - - 0.2
09/07:00pm 13.0 7.4 3.4 52 4.3 W 22 33 12 18 - - 0.2
09/06:30pm 14.8 9.8 3.6 47 5.1 WSW 19 44 10 24 - - 0.2
09/06:00pm 15.0 10.7 3.2 45 5.3 N 15 37 8 20 - - 0.2
09/05:30pm 15.3 9.0 3.5 45 5.4 S 26 48 14 26 - - 0.2
09/05:05pm 14.9 8.0 2.8 44 5.4 S 28 46 15 25 - - 0.2
09/05:00pm 15.2 10.5 3.0 44 5.5 S 17 46 9 25 - - 0.2
09/04:44pm 15.2 7.6 3.0 44 5.5 SW 32 50 17 27 - - 0.2
09/04:30pm 15.6 10.9 3.1 43 5.7 SW 17 37 9 20 - - 0.2
09/04:00pm 16.3 11.1 2.3 39 6.3 SSW 19 37 10 20 - - 0.2
09/03:30pm 15.5 8.9 2.3 41 5.9 W 26 48 14 26 - - 0.2
09/03:00pm 16.8 9.0 2.0 37 6.6 WSW 32 50 17 27 - - 0.2
09/02:39pm 16.0 9.2 3.1 42 5.9 W 28 46 15 25 - - 0.2
09/02:30pm 14.5 6.8 2.1 43 5.5 W 32 44 17 24 - - 0.2
09/02:10pm 16.2 9.1 3.3 42 5.9 WSW 30 48 16 26 - - 0.2
09/02:00pm 15.5 8.0 3.3 44 5.6 W 32 43 17 23 - - 0.2
09/01:45pm 15.1 8.2 2.6 43 5.6 WSW 28 54 15 29 - - 0.2
09/01:30pm 14.5 8.1 3.3 47 5.1 WSW 26 46 14 25 - - 0.2
09/01:20pm 14.3 7.4 2.5 45 5.2 SSW 28 52 15 28 - - 0.2
09/01:00pm 14.0 7.8 2.3 45 5.2 SSW 24 39 13 21 - - 0.2
09/12:30pm 12.2 7.3 6.9 70 2.5 S 22 35 12 19 - - 0.2
09/12:11pm 11.0 4.2 5.3 68 2.6 W 30 50 16 27 - - 0.0
09/12:00pm 13.2 8.0 2.7 49 4.6 W 19 37 10 20 - - 0.0
09/11:30am 12.9 6.4 2.7 50 4.5 WSW 26 41 14 22 - - 0.0
09/11:11am 14.7 7.9 3.2 46 5.2 W 28 46 15 25 - - 0.0
09/11:00am 13.4 6.2 2.9 49 4.7 W 30 43 16 23 - - 0.0
09/10:30am 13.1 6.1 1.8 46 4.9 SSW 28 41 15 22 - - 0.0
09/10:29am 13.3 5.9 1.9 46 4.9 SSW 30 41 16 22 - - 0.0
09/10:17am 12.8 4.0 1.5 46 4.8 SW 37 56 20 30 - - 0.0
09/10:16am 13.2 4.1 2.1 47 4.8 WSW 39 56 21 30 - - 0.0
09/10:00am 12.6 5.0 3.0 52 4.2 SSW 32 63 17 34 - - 0.0
09/09:39am 11.3 4.1 1.0 49 4.3 S 28 59 15 32 - - 0.0
09/09:30am 12.0 6.4 1.3 48 4.5 SSW 20 37 11 20 - - 0.0
09/09:00am 11.2 6.5 0.9 49 4.3 W 15 41 8 22 - - 0.8
09/08:30am 10.7 5.1 1.0 51 4.0 S 20 33 11 18 - - 0.8
09/08:00am 9.4 4.1 2.0 60 3.1 NW 19 26 10 14 - - 0.8
09/07:30am 9.2 3.9 2.1 61 3.0 W 19 28 10 15 - - 0.8
09/07:00am 9.3 4.7 1.5 58 3.2 WSW 15 22 8 12 - - 0.8
09/06:30am 9.4 6.6 2.3 61 3.0 E 6 13 3 7 - - 0.8
09/06:00am 8.9 5.3 3.1 67 2.5 SE 11 30 6 16 - - 0.8
09/05:30am 9.1 0.9 2.9 65 2.6 WSW 35 50 19 27 - - 0.8
09/05:05am 9.6 1.8 2.7 62 2.9 WSW 33 52 18 28 - - 0.8
09/05:00am 9.5 1.0 3.0 64 2.8 W 37 52 20 28 - - 0.8
09/04:30am 10.2 4.8 2.6 59 3.3 W 20 37 11 20 - - 0.8
09/04:00am 10.6 5.5 2.9 59 3.3 W 19 35 10 19 - - 0.8
09/03:30am 10.7 4.8 3.7 62 3.1 W 24 35 13 19 - - 0.8
09/03:00am 11.0 4.7 4.0 62 3.1 W 26 39 14 21 - - 0.8
09/02:30am 10.9 4.7 4.4 64 2.9 W 26 37 14 20 - - 0.8
09/02:00am 11.1 5.0 4.6 64 2.9 WSW 26 44 14 24 - - 0.8
09/01:30am 11.4 6.7 5.1 65 2.9 W 19 32 10 17 - - 0.8
09/01:00am 12.1 5.5 5.9 66 2.9 WSW 30 44 16 24 - - 0.8
09/12:36am 12.5 6.2 5.9 64 3.1 W 28 48 15 26 - - 0.8
09/12:30am 12.6 7.5 5.8 63 3.2 W 22 44 12 24 - - 0.8
09/12:21am 12.9 6.6 5.8 62 3.3 WSW 28 54 15 29 - - 0.8
09/12:00am 13.6 8.4 5.5 58 3.8 W 22 39 12 21 - - 0.8
 
Date/Time
EDT
Temp
°C
App
Temp
°C
Dew
Point
°C
Rel
Hum
%
Delta-T
°C
Wind Press
QNH
hPa
Press
MSL
hPa
Rain since
9am
mm
Dir  Spd
km/h
Gust
km/h
Spd
kts
Gust
kts
08/11:31pm 14.0 7.9 6.4 60 3.7 W 28 63 15 34 - - 0.8
08/11:30pm 14.0 8.3 6.6 61 3.6 W 26 48 14 26 - - 0.8
08/11:00pm 14.6 7.9 8.1 65 3.3 W 33 52 18 28 - - 0.8
08/10:56pm 14.5 7.9 8.7 68 2.9 W 33 52 18 28 - - 0.8
08/10:30pm 15.3 11.1 8.3 63 3.5 WNW 20 30 11 16 - - 0.8
08/10:00pm 15.5 10.5 8.0 61 3.8 WNW 24 35 13 19 - - 0.8
08/09:30pm 15.7 11.7 8.2 61 3.8 WNW 19 26 10 14 - - 0.8
08/09:00pm 16.1 10.7 8.1 59 4.0 WNW 26 43 14 23 - - 0.8
08/08:30pm 17.0 11.4 7.1 52 4.9 NW 26 46 14 25 - - 0.8
08/08:06pm 17.7 11.2 6.6 48 5.5 NW 30 61 16 33 - - 0.8
08/08:00pm 17.8 12.5 7.0 49 5.4 NW 24 39 13 21 - - 0.8
08/07:30pm 18.5 11.6 6.4 45 6.0 NW 32 52 17 28 - - 0.8
08/07:00pm 19.3 11.8 6.4 43 6.4 NNW 35 59 19 32 - - 0.8
08/06:53pm 18.8 12.9 7.6 48 5.7 N 28 48 15 26 - - 0.8
08/06:30pm 17.9 11.9 10.0 60 4.2 N 32 48 17 26 - - 0.8
08/06:04pm 19.3 11.7 8.9 51 5.5 N 39 57 21 31 - - 0.8
08/06:00pm 19.7 12.1 9.0 50 5.6 N 39 50 21 27 - - 0.8
08/05:30pm 19.5 10.1 8.8 50 5.6 N 48 69 26 37 - - 0.8
08/05:00pm 20.1 11.0 8.4 47 6.1 N 46 67 25 36 - - 0.8
08/04:30pm 21.3 11.3 7.9 42 7.0 N 50 74 27 40 - - 0.8
08/04:00pm 20.8 12.1 10.0 50 5.8 N 46 69 25 37 - - 0.8
08/03:30pm 21.9 13.4 9.4 45 6.7 N 44 69 24 37 - - 0.8
08/03:00pm 23.5 14.5 7.2 35 8.5 N 44 72 24 39 - - 0.8
08/02:33pm 22.7 15.2 12.0 50 6.0 N 43 63 23 34 - - 0.8
08/02:30pm 23.2 16.2 13.7 55 5.5 N 43 59 23 32 - - 0.8
08/02:00pm 21.0 14.1 14.4 66 3.9 N 44 65 24 35 - - 0.8
08/01:30pm 22.5 15.2 14.6 61 4.7 N 46 72 25 39 - - 0.8
08/01:00pm 21.3 13.7 14.7 66 3.9 N 48 69 26 37 - - 0.8
08/12:30pm 19.8 14.1 15.2 75 2.7 N 39 59 21 32 - - 0.8
08/12:00pm 17.6 11.2 14.3 81 1.9 N 41 63 22 34 - - 0.8
08/11:31am 17.4 13.3 13.7 79 2.1 N 28 46 15 25 - - 0.4
08/11:30am 17.3 13.6 13.8 80 2.0 N 26 41 14 22 - - 0.4
08/11:03am 15.9 10.8 13.6 86 1.3 N 33 52 18 28 - - 0.4
08/11:00am 15.6 10.4 13.3 86 1.3 N 33 48 18 26 - - 0.4
08/10:30am 15.6 10.7 12.5 82 1.7 N 30 50 16 27 - - 0.2
08/10:01am 15.1 10.2 11.3 78 2.0 N 28 46 15 25 - - 0.0
08/10:00am 15.1 10.6 11.3 78 2.0 N 26 43 14 23 - - 0.0
08/09:30am 15.2 9.0 10.0 71 2.7 N 33 59 18 32 - - 0.0
08/09:04am 15.1 9.6 9.0 67 3.1 N 28 46 15 25 - - 0.0
08/09:00am 15.1 11.1 9.0 67 3.1 N 20 39 11 21 - - 0.6
08/08:30am 13.7 8.7 8.1 69 2.8 N 24 39 13 21 - - 0.6
08/08:00am 13.7 10.0 7.9 68 2.9 N 17 30 9 16 - - 0.4
08/07:30am 12.4 11.1 9.1 80 1.7 N 6 9 3 5 - - 0.4
08/07:00am 12.3 10.4 9.0 80 1.7 N 9 11 5 6 - - 0.4
08/06:30am 12.3 11.0 10.0 86 1.2 NE 7 11 4 6 - - 0.4
08/06:00am 12.7 12.2 9.3 80 1.7 N 2 7 1 4 - - 0.2
08/05:30am 13.0 10.4 9.3 78 1.9 NNW 13 20 7 11 - - 0.0
08/05:00am 13.4 10.3 8.9 74 2.3 N 15 24 8 13 - - 0.0
08/04:30am 12.8 9.4 9.3 79 1.8 NNE 17 20 9 11 - - 0.0
08/04:00am 12.5 9.7 10.0 85 1.3 NNE 15 20 8 11 - - 0.0
08/03:30am 11.8 9.6 9.5 86 1.2 NNE 11 13 6 7 - - 0.0
08/03:00am 11.8 9.2 9.5 86 1.2 N 13 17 7 9 - - 0.0
08/02:30am 13.1 9.6 10.1 82 1.5 N 19 30 10 16 - - 0.0
08/02:00am 12.8 10.1 10.2 84 1.3 N 15 20 8 11 - - 0.0
08/01:30am 12.0 10.8 10.4 90 0.8 N 7 11 4 6 - - 0.0
08/01:00am 10.9 9.2 9.8 93 0.6 NNW 9 13 5 7 - - 0.0
08/12:30am 11.0 9.9 9.9 93 0.6 NNE 6 9 3 5 - - 0.0
08/12:00am 11.1 11.2 10.0 93 0.6 CALM 0 0 0 0 - - 0.0
 
Date/Time
EDT
Temp
°C
App
Temp
°C
Dew
Point
°C
Rel
Hum
%
Delta-T
°C
Wind Press
QNH
hPa
Press
MSL
hPa
Rain since
9am
mm
Dir  Spd
km/h
Gust
km/h
Spd
kts
Gust
kts
07/11:30pm 11.7 10.5 10.4 92 0.7 NNE 7 11 4 6 - - 0.0
07/11:00pm 11.8 10.9 10.5 92 0.7 SW 6 11 3 6 - - 0.0
07/10:30pm 12.3 10.5 10.7 90 0.8 SSW 11 11 6 6 - - 0.0
07/10:00pm 13.7 11.7 11.6 87 1.1 S 13 15 7 8 - - 0.0
07/09:30pm 13.8 12.2 11.7 87 1.1 S 11 15 6 8 - - 0.0
07/09:00pm 13.8 11.7 11.3 85 1.3 S 13 17 7 9 - - 0.0
07/08:30pm 14.9 13.1 10.7 76 2.2 S 11 15 6 8 - - 0.0
07/08:00pm 16.6 14.2 11.3 71 2.9 S 15 19 8 10 - - 0.0
07/07:30pm 19.1 17.3 12.1 64 3.9 ESE 13 17 7 9 - - 0.0
07/07:00pm 20.6 19.2 12.1 58 4.8 E 11 17 6 9 - - 0.0
07/06:30pm 22.2 19.3 8.0 40 7.4 NW 13 19 7 10 - - 0.0
07/06:00pm 22.6 19.9 7.2 37 8.0 NW 11 20 6 11 - - 0.0
07/05:30pm 22.1 19.0 7.1 38 7.7 WNW 13 19 7 10 - - 0.0
07/05:00pm 23.7 19.5 8.2 37 8.2 W 20 30 11 16 - - 0.0
07/04:30pm 23.8 19.4 7.4 35 8.6 W 20 30 11 16 - - 0.0
07/04:00pm 23.5 19.4 8.0 37 8.2 W 19 33 10 18 - - 0.0
07/03:30pm 24.0 19.7 8.0 36 8.5 W 20 30 11 16 - - 0.0
07/03:00pm 23.1 19.0 8.8 40 7.7 WNW 20 30 11 16 - - 0.0
07/02:30pm 24.1 19.9 9.7 40 7.9 WNW 22 30 12 16 - - 0.0
07/02:00pm 23.6 18.6 8.1 37 8.2 W 24 37 13 20 - - 0.0
07/01:30pm 22.7 16.5 7.7 38 7.8 NW 30 44 16 24 - - 0.0
07/01:00pm 21.5 17.4 8.7 44 6.8 WNW 20 30 11 16 - - 0.0
07/12:30pm 21.6 16.4 8.8 44 6.8 NW 26 41 14 22 - - 0.0

Latest Capital City Observations: Canberra | Sydney | Melbourne | Brisbane | Adelaide | Perth | Hobart | Darwin

Other Formats:

Comma delimited format used in spreadsheet applications
http://www.bom.gov.au/fwo/IDT60901/IDT60901.95972.axf

JavaScript Object Notation format (JSON) in row-major order
http://www.bom.gov.au/fwo/IDT60901/IDT60901.95972.json